Terminal Aerodrome Forecast
Issued by NWS Austin/San Antonio, TX

Home | Current Version | Previous Version | Text Only | Print | Product List | Glossary On
Versions: 1 2 3 4 5 6 7 8 9 10 11 12 13 14 15
000
FTUS44 KEWX 291100
TAFDRT
TAF
KDRT 291120Z 2912/3012 11006KT P6SM SKC
     FM291700 14014KT P6SM FEW080 SCT200
     FM300100 11007KT P6SM SCT200=

USA.gov is the U.S. government's official web portal to all federal, state and local government web resources and services.